Main page
METAR-TAF:

METAR-TAF

Airports :

Blackpool Airport

Blackpool, England

latitude: 53-46N, longitude: 003-02W, elevation: 10 m

Current weather observation

The report was made 3 hours and 57 minutes ago, at 20:50 UTC
Wind 11 kt from the West
Temperature 8°C
Humidity 100%
Pressure 1018 hPa
Visibility: 7000 m
Few clouds at a height of 200 ft

METAR: EGNH 202050Z 26011KT 7000 FEW002 08/08 Q1018

Time: 00:47 (00:47 UTC)

Forecast

The report was made 7 hours and 44 minutes ago, at 17:03 UTC
Forecast valid from 20 at 18 UTC to 20 at 21 UTC
Wind 18 kt from the West/Southwest
Visibility: 8000 m
Scattered clouds at a height of 2000 ft
Becoming
from 20 at 18 UTC to 20 at 21 UTC
Wind 8 kt from the Southwest
Visibility 10 km or more

TAF: EGNH 201703Z 2018/2021 25018KT 8000 SCT020 BECMG 2018/2021 22008KT 9999

Weather observations and forecasts of more than 4000 airports (METAR and TAF reports).

The available stations are represented by yellow and red dots on the map.

Hover mouse over dot to see the name of the station.

Then click to see weather observations and forecasts.

To change the map : click on the green buttons with a black cross to zoom in, on the green button with a dash to zoom out, or on the green arrows for adjacent maps.


METAR-TAF: